createdAt,value
2022-11-15T00:01:18.179Z,40.83
2022-11-15T00:03:46.060Z,37.72
2022-11-15T00:06:13.755Z,35.58
2022-11-15T00:08:41.205Z,35.92
2022-11-15T00:11:12.281Z,41.35
2022-11-15T00:16:07.159Z,37.50
2022-11-15T00:18:34.545Z,40.25
2022-11-15T00:21:07.786Z,38.63
2022-11-15T00:23:35.316Z,37.50
2022-11-15T00:26:02.940Z,39.42
2022-11-15T00:28:30.735Z,40.17
2022-11-15T00:31:03.195Z,37.55
2022-11-15T00:33:31.671Z,33.95
2022-11-15T00:36:05.569Z,34.47
2022-11-15T00:38:38.749Z,36.70
2022-11-15T00:41:09.638Z,34.60
2022-11-15T00:43:37.901Z,36.22
2022-11-15T00:46:05.400Z,35.78
2022-11-15T00:48:32.920Z,36.70
2022-11-15T00:51:00.342Z,33.35
2022-11-15T00:53:28.225Z,33.72
2022-11-15T00:55:55.815Z,36.60
2022-11-15T00:58:23.209Z,45.50
2022-11-15T01:00:50.712Z,39.83
2022-11-15T01:03:18.163Z,40.53
2022-11-15T01:05:45.608Z,39.00
2022-11-15T01:08:17.230Z,49.03
2022-11-15T01:10:44.733Z,54.65
2022-11-15T01:13:12.277Z,40.95
2022-11-15T01:15:42.957Z,54.83
2022-11-15T01:18:10.493Z,45.63
2022-11-15T01:20:44.915Z,48.80
2022-11-15T01:23:12.354Z,45.75
2022-11-15T01:25:39.836Z,41.88
2022-11-15T01:28:07.490Z,44.55
2022-11-15T01:30:34.900Z,39.08
2022-11-15T01:33:02.274Z,49.67
2022-11-15T01:35:29.646Z,48.05
2022-11-15T01:37:57.310Z,43.75
2022-11-15T01:40:24.791Z,45.17
2022-11-15T01:42:52.182Z,39.33
2022-11-15T01:45:19.643Z,40.72
2022-11-15T01:47:53.024Z,41.22
2022-11-15T01:50:31.400Z,40.30
2022-11-15T01:52:58.940Z,44.28
2022-11-15T01:55:28.479Z,44.42
2022-11-15T01:58:00.949Z,39.83
2022-11-15T02:00:30.229Z,35.25
2022-11-15T02:02:57.949Z,39.63
2022-11-15T02:05:25.742Z,34.55
2022-11-15T02:07:53.344Z,38.42
2022-11-15T02:10:23.729Z,41.65
2022-11-15T02:12:52.239Z,32.72
2022-11-15T02:15:19.890Z,31.20
2022-11-15T02:17:59.157Z,35.58
2022-11-15T02:20:49.870Z,31.15
2022-11-15T02:23:51.249Z,27.42
2022-11-15T02:29:42.897Z,28.38
2022-11-15T02:32:23.163Z,29.05
2022-11-15T02:35:08.952Z,27.80
2022-11-15T02:37:48.448Z,26.40
2022-11-15T02:40:44.941Z,26.10
2022-11-15T02:43:36.197Z,26.70
2022-11-15T02:48:39.113Z,28.67
2022-11-15T02:51:07.496Z,29.05
2022-11-15T02:53:35.037Z,28.05
2022-11-15T02:56:02.797Z,29.35
2022-11-15T02:58:45.095Z,28.92
2022-11-15T03:01:55.730Z,26.67
2022-11-15T03:04:58.602Z,24.48
2022-11-15T03:08:00.887Z,24.45
2022-11-15T03:11:01.099Z,26.95
2022-11-15T03:13:37.389Z,27.25
2022-11-15T03:16:11.177Z,26.27
2022-11-15T03:18:42.846Z,25.58
2022-11-15T03:21:12.666Z,29.30
2022-11-15T03:23:42.441Z,18.83
2022-11-15T03:26:13.590Z,30.38
2022-11-15T03:28:46.856Z,27.52
2022-11-15T03:31:35.627Z,27.55
2022-11-15T03:34:05.510Z,25.45
2022-11-15T03:36:35.179Z,24.80
2022-11-15T03:39:08.587Z,25.35
2022-11-15T03:41:48.285Z,28.88
2022-11-15T03:44:25.994Z,25.30
2022-11-15T03:46:59.028Z,31.33
2022-11-15T03:49:32.303Z,28.52
2022-11-15T03:52:01.237Z,27.83
2022-11-15T03:54:28.702Z,26.83
2022-11-15T03:56:56.190Z,27.17
2022-11-15T03:59:23.808Z,24.58
2022-11-15T04:01:51.371Z,27.70
2022-11-15T04:04:18.813Z,24.25
2022-11-15T04:06:46.396Z,24.65
2022-11-15T04:09:13.805Z,21.23
2022-11-15T04:11:41.298Z,25.40
2022-11-15T04:14:08.756Z,20.40
2022-11-15T04:16:40.910Z,19.55
2022-11-15T04:19:29.792Z,26.13
2022-11-15T04:22:15.945Z,23.40
2022-11-15T04:24:43.329Z,21.02
2022-11-15T04:27:11.186Z,37.42
2022-11-15T04:29:38.622Z,254.95
2022-11-15T04:32:08.107Z,59.42
2022-11-15T04:34:36.325Z,157.07
2022-11-15T04:37:17.156Z,58.70
2022-11-15T04:39:44.914Z,52.92
2022-11-15T04:42:12.502Z,70.68
2022-11-15T04:44:39.963Z,112.22
2022-11-15T04:47:07.420Z,33.10
2022-11-15T04:49:34.889Z,26.58
2022-11-15T04:52:02.347Z,25.92
2022-11-15T04:54:29.798Z,41.55
2022-11-15T04:56:57.215Z,48.63
2022-11-15T04:59:24.663Z,33.85
2022-11-15T05:01:52.047Z,26.40
2022-11-15T05:04:22.088Z,83.22
2022-11-15T05:06:52.036Z,48.85
2022-11-15T05:09:22.930Z,33.55
2022-11-15T05:11:50.298Z,27.90
2022-11-15T05:14:17.980Z,32.97
2022-11-15T05:16:45.400Z,23.50
2022-11-15T05:19:12.932Z,27.98
2022-11-15T05:21:40.529Z,28.00
2022-11-15T05:24:10.392Z,47.97
2022-11-15T05:26:38.103Z,41.17
2022-11-15T05:29:05.656Z,32.97
2022-11-15T05:31:33.227Z,31.90
2022-11-15T05:34:05.058Z,40.33
2022-11-15T05:36:39.132Z,52.05
2022-11-15T05:39:09.387Z,43.50
2022-11-15T05:41:50.111Z,28.20
2022-11-15T05:44:22.835Z,32.72
2022-11-15T05:46:51.843Z,37.05
2022-11-15T05:49:23.057Z,37.58
2022-11-15T05:51:51.641Z,38.65
2022-11-15T05:54:20.406Z,36.58
2022-11-15T05:56:47.972Z,27.50
2022-11-15T05:59:15.594Z,32.13
2022-11-15T06:01:43.188Z,26.73
2022-11-15T06:04:10.659Z,24.85
2022-11-15T06:06:38.191Z,31.13
2022-11-15T06:09:05.622Z,30.98
2022-11-15T06:11:33.026Z,34.22
2022-11-15T06:14:00.488Z,31.15
2022-11-15T06:16:27.972Z,32.97
2022-11-15T06:18:55.421Z,35.10
2022-11-15T06:21:23.238Z,29.30
2022-11-15T06:23:50.805Z,31.00
2022-11-15T06:26:18.150Z,44.67
2022-11-15T06:28:45.562Z,32.53
2022-11-15T06:31:13.163Z,32.72
2022-11-15T06:33:41.487Z,34.13
2022-11-15T06:36:17.110Z,30.05
2022-11-15T06:38:46.128Z,33.25
2022-11-15T06:41:15.008Z,26.75
2022-11-15T06:43:42.452Z,31.42
2022-11-15T06:46:11.015Z,25.50
2022-11-15T06:48:38.721Z,29.73
2022-11-15T06:51:06.682Z,33.70
2022-11-15T06:53:34.578Z,28.65
2022-11-15T06:56:07.015Z,28.55
2022-11-15T06:58:34.776Z,23.60
2022-11-15T07:01:13.146Z,29.17
2022-11-15T07:03:42.695Z,28.77
2022-11-15T07:06:10.645Z,45.15
2022-11-15T07:08:39.082Z,25.40
2022-11-15T07:11:08.255Z,30.77
2022-11-15T07:13:37.208Z,32.63
2022-11-15T07:16:09.810Z,32.10
2022-11-15T07:18:41.180Z,26.80
2022-11-15T07:21:11.376Z,26.45
2022-11-15T07:23:40.025Z,25.93
2022-11-15T07:26:09.094Z,23.13
2022-11-15T07:28:37.175Z,26.77
2022-11-15T07:31:06.571Z,26.55
2022-11-15T07:33:34.875Z,19.77
2022-11-15T07:36:06.954Z,29.88
2022-11-15T07:38:42.168Z,35.30
2022-11-15T07:41:10.248Z,32.60
2022-11-15T07:43:37.698Z,35.85
2022-11-15T07:46:12.467Z,27.92
2022-11-15T07:48:45.256Z,30.65
2022-11-15T07:51:15.541Z,26.33
2022-11-15T07:53:43.871Z,23.00
2022-11-15T07:56:11.452Z,25.52
2022-11-15T07:58:38.919Z,26.67
2022-11-15T08:01:07.876Z,32.42
2022-11-15T08:03:36.171Z,28.65
2022-11-15T08:06:04.042Z,27.63
2022-11-15T08:08:31.409Z,28.58
2022-11-15T08:10:59.805Z,26.80
2022-11-15T08:13:27.278Z,26.05
2022-11-15T08:16:00.259Z,27.30
2022-11-15T08:18:27.739Z,20.85
2022-11-15T08:20:59.797Z,23.50
2022-11-15T08:23:27.141Z,23.02
2022-11-15T08:25:59.722Z,23.80
2022-11-15T08:28:27.085Z,25.83
2022-11-15T08:30:57.649Z,23.23
2022-11-15T08:33:25.983Z,24.17
2022-11-15T08:35:53.438Z,21.35
2022-11-15T08:38:20.810Z,24.20
2022-11-15T08:40:48.181Z,22.92
2022-11-15T08:43:15.543Z,23.90
2022-11-15T08:45:42.880Z,25.75
2022-11-15T08:48:10.337Z,22.05
2022-11-15T08:50:37.927Z,26.25
2022-11-15T08:53:09.647Z,26.45
2022-11-15T08:55:40.935Z,33.47
2022-11-15T08:58:08.440Z,24.30
2022-11-15T09:00:35.847Z,26.58
2022-11-15T09:03:06.375Z,23.10
2022-11-15T09:05:36.548Z,23.42
2022-11-15T09:08:19.090Z,23.83
2022-11-15T09:10:51.649Z,26.15
2022-11-15T09:13:19.033Z,22.98
2022-11-15T09:15:46.401Z,25.08
2022-11-15T09:18:13.759Z,23.65
2022-11-15T09:20:41.324Z,23.67
2022-11-15T09:23:08.765Z,24.92
2022-11-15T09:25:36.220Z,17.77
2022-11-15T09:28:07.764Z,25.15
2022-11-15T09:30:35.165Z,21.13
2022-11-15T09:33:13.415Z,24.05
2022-11-15T09:35:42.048Z,19.95
2022-11-15T09:38:09.793Z,22.50
2022-11-15T09:40:38.496Z,15.25
2022-11-15T09:43:17.761Z,18.55
2022-11-15T09:46:20.304Z,20.48
2022-11-15T09:48:54.106Z,21.77
2022-11-15T09:51:36.881Z,17.05
2022-11-15T09:54:37.919Z,21.65
2022-11-15T09:57:00.558Z,26.65
2022-11-15T09:59:55.576Z,42.65
2022-11-15T10:02:41.010Z,17.73
2022-11-15T10:05:17.477Z,18.42
2022-11-15T10:08:11.095Z,18.10
2022-11-15T10:13:53.761Z,17.98
2022-11-15T10:16:39.702Z,16.70
2022-11-15T10:19:29.894Z,14.35
2022-11-15T10:22:24.629Z,15.88
2022-11-15T10:25:13.431Z,18.67
2022-11-15T10:27:42.957Z,18.13
2022-11-15T10:30:17.485Z,18.05
2022-11-15T10:32:47.178Z,15.27
2022-11-15T10:35:18.770Z,15.88
2022-11-15T10:37:46.147Z,24.10
2022-11-15T10:40:20.543Z,14.13
2022-11-15T10:42:48.719Z,20.55
2022-11-15T10:45:28.528Z,18.50
2022-11-15T10:48:15.814Z,22.48
2022-11-15T10:50:48.032Z,20.80
2022-11-15T10:53:30.363Z,18.88
2022-11-15T10:56:03.081Z,22.33
2022-11-15T10:58:41.081Z,20.45
2022-11-15T11:01:13.254Z,20.33
2022-11-15T11:03:42.525Z,21.98
2022-11-15T11:06:18.927Z,18.10
2022-11-15T11:09:06.016Z,26.60
2022-11-15T11:11:46.852Z,22.45
2022-11-15T11:14:21.945Z,21.77
2022-11-15T11:16:54.067Z,25.58
2022-11-15T11:19:45.444Z,16.90
2022-11-15T11:22:48.399Z,17.00
2022-11-15T11:25:21.675Z,24.20
2022-11-15T11:28:17.913Z,25.85
2022-11-15T11:31:06.891Z,19.90
2022-11-15T11:33:56.223Z,21.42
2022-11-15T11:36:37.845Z,18.25
2022-11-15T11:39:35.674Z,17.08
2022-11-15T11:42:30.495Z,17.05
2022-11-15T11:45:14.722Z,20.05
2022-11-15T11:48:04.611Z,23.40
2022-11-15T11:50:33.418Z,19.50
2022-11-15T11:53:15.466Z,16.90
2022-11-15T11:55:51.027Z,22.55
2022-11-15T11:58:29.560Z,19.73
2022-11-15T12:01:15.193Z,19.35
2022-11-15T12:03:53.123Z,20.42
2022-11-15T12:06:49.317Z,17.88
2022-11-15T12:09:19.201Z,15.52
2022-11-15T12:11:53.267Z,19.40
2022-11-15T12:14:38.760Z,34.60
2022-11-15T12:17:06.219Z,27.45
2022-11-15T12:19:33.998Z,22.95
2022-11-15T12:22:07.025Z,22.10
2022-11-15T12:24:59.807Z,19.73
2022-11-15T12:27:56.745Z,19.58
2022-11-15T12:30:26.553Z,19.48
2022-11-15T12:33:02.394Z,22.98
2022-11-15T12:35:42.131Z,22.05
2022-11-15T12:38:13.846Z,23.73
2022-11-15T12:41:27.307Z,26.35
2022-11-15T12:43:56.083Z,22.08
2022-11-15T12:46:32.313Z,27.83
2022-11-15T12:49:09.077Z,28.33
2022-11-15T12:51:48.062Z,26.35
2022-11-15T12:54:35.757Z,27.00
2022-11-15T12:57:08.371Z,22.92
2022-11-15T12:59:56.554Z,20.58
2022-11-15T13:02:57.002Z,21.10
2022-11-15T13:05:37.191Z,20.70
2022-11-15T13:08:04.648Z,22.37
2022-11-15T13:10:34.243Z,24.30
2022-11-15T13:13:09.372Z,22.70
2022-11-15T13:15:41.277Z,25.63
2022-11-15T13:18:39.060Z,23.65
2022-11-15T13:21:42.381Z,22.25
2022-11-15T13:24:14.816Z,28.10
2022-11-15T13:26:42.371Z,26.50
2022-11-15T13:29:20.911Z,25.30
2022-11-15T13:31:49.006Z,28.50
2022-11-15T13:34:44.113Z,27.25
2022-11-15T13:37:04.313Z,28.15
2022-11-15T13:39:34.881Z,25.63
2022-11-15T13:42:03.422Z,26.15
2022-11-15T13:44:33.618Z,23.20
2022-11-15T13:47:14.032Z,25.90
2022-11-15T13:49:41.947Z,27.73
2022-11-15T13:52:15.806Z,27.58
2022-11-15T13:55:09.954Z,26.35
2022-11-15T13:57:49.292Z,31.08
2022-11-15T14:00:41.778Z,26.60
2022-11-15T14:03:15.481Z,25.23
2022-11-15T14:05:43.481Z,24.90
2022-11-15T14:08:24.885Z,20.38
2022-11-15T14:11:08.978Z,37.45
2022-11-15T14:13:36.791Z,42.50
2022-11-15T14:16:21.491Z,33.30
2022-11-15T14:18:51.242Z,23.63
2022-11-15T14:21:20.407Z,24.02
2022-11-15T14:23:47.825Z,30.27
2022-11-15T14:26:35.364Z,28.77
2022-11-15T14:29:27.172Z,23.38
2022-11-15T14:32:06.535Z,29.35
2022-11-15T14:34:34.369Z,26.25
2022-11-15T14:37:01.786Z,25.88
2022-11-15T21:42:42.773Z,70.32
2022-11-15T21:45:10.725Z,64.63
2022-11-15T21:47:41.969Z,70.70
2022-11-15T21:50:12.071Z,71.40
2022-11-15T21:52:40.896Z,65.35
2022-11-15T21:55:09.092Z,70.10
2022-11-15T21:57:36.521Z,75.07
2022-11-15T22:00:23.922Z,65.90
2022-11-15T22:02:51.337Z,66.85
2022-11-15T22:05:18.753Z,76.15
2022-11-15T22:07:46.157Z,72.38
2022-11-15T22:10:13.641Z,59.42
2022-11-15T22:12:41.195Z,68.20
2022-11-15T22:15:08.871Z,70.75
2022-11-15T22:17:54.783Z,68.63
2022-11-15T22:20:43.572Z,69.68
2022-11-15T22:23:10.396Z,80.55
2022-11-15T22:25:37.894Z,69.95
2022-11-15T22:28:05.487Z,64.65
2022-11-15T22:30:32.994Z,66.78
2022-11-15T22:33:00.456Z,68.50
2022-11-15T22:35:27.926Z,64.72
2022-11-15T22:37:55.428Z,67.03
2022-11-15T22:40:22.892Z,68.60
2022-11-15T22:42:50.348Z,70.38
2022-11-15T22:45:17.868Z,70.22
2022-11-15T22:47:45.305Z,68.43
2022-11-15T22:50:12.816Z,63.75
2022-11-15T22:52:40.328Z,67.72
2022-11-15T22:55:08.287Z,75.20
2022-11-15T22:57:38.345Z,71.82
2022-11-15T23:00:12.450Z,77.03
2022-11-15T23:02:39.910Z,67.55
2022-11-15T23:05:07.764Z,79.57
2022-11-15T23:07:35.364Z,77.70
2022-11-15T23:10:21.283Z,69.93
2022-11-15T23:13:07.086Z,78.05
2022-11-15T23:15:52.960Z,68.28
2022-11-15T23:18:20.509Z,75.18
2022-11-15T23:20:47.994Z,71.72
2022-11-15T23:23:15.504Z,64.68
2022-11-15T23:25:42.967Z,76.15
2022-11-15T23:28:10.396Z,69.70
2022-11-15T23:30:57.359Z,64.45
